KPAE/PAE METAR and TAF weather

Enter ICAO airport designator
Station Type Date Time Source
KPAE METAR 2019/12/06 13:53 UTC NOAA

KPAE 061353Z AUTO 11004KT 10SM OVC095 08/04 A2991 RMK AO2 RAE1259 SLP132 P0000 T00830044


Station Type Date Time Source
KPAE Decoded METAR 2019/12/06 13:53 UTC NOAA

EVERETT SNOHOMISH COUNTY, WA, United States (KPAE) 47-55N 122-17W 180M
Dec 06, 2019 - 08:53 AM EST / 2019.12.06 1353 UTC
Wind: from the ESE (110 degrees) at 5 MPH (4 KT):0
Visibility: 10 mile(s):0
Sky conditions: overcast
Precipitation last hour: A trace
Temperature: 46.9 F (8.3 C)
Dew Point: 39.9 F (4.4 C)
Relative Humidity: 76%
Pressure (altimeter): 29.91 in. Hg (1012 hPa)
ob: KPAE 061353Z AUTO 11004KT 10SM OVC095 08/04 A2991 RMK AO2 RAE1259 SLP132 P0000 T00830044
cycle: 14

Station Type Date Time Source
KPAE TAF 2019/12/06 12:28 UTC NOAA

TAF KPAE 061126Z 0612/0712 05005KT P6SM SCT050 OVC070
TEMPO 0612/0616 1SM BR BKN001
FM061800 14006KT P6SM BKN050 OVC070
FM062000 14006KT P6SM OVC050
FM070100 16006KT P6SM -RA BKN020 OVC035

Example: see airport list